Terminal Aerodrome Forecast
Issued by NWS Charleston, WV

Current Version | Previous Version | Text Only | Print | Product List | Glossary Off
Versions: 1 2 3 4 5 6 7 8 9 10 11 12 13 14 15 16 17 18 19 20

000
FTUS41 KRLX 251735
TAFHTS
TAF
KHTS 251735Z 2518/2618 29006KT P6SM BKN050
     FM260100 00000KT P6SM SCT250
     FM260300 00000KT P6SM FEW050 BKN250
     FM260900 00000KT P6SM SCT045
     FM261300 VRB03KT P6SM SCT250
     FM261500 35008KT P6SM SCT250=

USA.gov is the U.S. government's official web portal to all federal, state and local government web resources and services.